Time;durP1;ratioP1;P1;durP2;ratioP2;P2;SDS_P1;SDS_P2;PMS_P1;PMS_P2;Temp;Humidity;BMP_temperature;BMP_pressure;BME280_temperature;BME280_humidity;BME280_pressure;Samples;Min_cycle;Max_cycle;Signal;HPM_P1;HPM_P2
2022/07/23 00:00:10;;;;;;;1027.88;961.17;;;;;;;21.57;57.10;101273.06;684705;28;21538;-68
2022/07/23 00:00:32;;;;;;;1017.50;951.25;;;;;;;21.55;57.07;101269.69;683663;28;45023;-68
2022/07/23 00:00:53;;;;;;;1025.15;958.67;;;;;;;21.58;56.98;101271.97;682885;28;67350;-68
2022/07/23 00:01:15;;;;;;;1015.85;949.85;;;;;;;21.59;57.21;101270.88;684336;28;23329;-68
2022/07/23 00:01:36;;;;;;;1020.35;954.03;;;;;;;21.57;57.02;101273.88;684278;28;23469;-68
2022/07/23 00:01:58;;;;;;;1031.32;964.63;;;;;;;21.59;57.13;101270.88;684291;28;23477;-68
2022/07/23 00:02:19;;;;;;;1025.93;959.60;;;;;;;21.57;57.15;101265.63;683563;28;46326;-68
2022/07/23 00:02:40;;;;;;;1023.80;957.67;;;;;;;21.54;57.11;101266.09;684738;28;22614;-67
2022/07/23 00:03:02;;;;;;;1011.92;946.25;;;;;;;21.55;57.22;101267.78;683924;28;44351;-68
2022/07/23 00:03:23;;;;;;;1020.47;954.47;;;;;;;21.57;57.09;101262.88;684314;28;23993;-68
2022/07/23 00:03:46;;;;;;;1018.65;952.83;;;;;;;21.57;57.03;101264.81;683604;28;46562;-68
2022/07/23 00:04:07;;;;;;;1017.13;951.30;;;;;;;21.56;56.99;101263.94;683887;28;44369;-68
2022/07/23 00:04:28;;;;;;;1011.50;945.90;;;;;;;21.55;57.28;101258.69;683818;28;23484;-68
2022/07/23 00:04:50;;;;;;;1004.58;939.30;;;;;;;21.56;57.04;101257.63;683975;28;22413;-68
2022/07/23 00:05:13;;;;;;;988.80;924.10;;;;;;;21.50;57.00;101259.41;683128;28;68316;-68
2022/07/23 00:05:35;;;;;;;989.15;924.55;;;;;;;21.46;57.23;101247.19;683815;28;46403;-68
2022/07/23 00:05:56;;;;;;;986.35;921.97;;;;;;;21.47;56.99;101250.78;683357;28;45064;-69
2022/07/23 00:06:17;;;;;;;965.92;902.53;;;;;;;21.46;57.31;101249.09;684466;28;21518;-69
2022/07/23 00:06:39;;;;;;;938.42;876.20;;;;;;;21.45;57.41;101247.44;660616;28;22585;-69
2022/07/23 00:07:01;;;;;;;918.50;857.13;;;;;;;21.46;57.21;101257.31;684812;28;69201;-68
2022/07/23 00:07:22;;;;;;;933.13;870.78;;;;;;;21.45;57.45;101250.19;683909;28;21003;-68
2022/07/23 00:07:43;;;;;;;951.70;888.88;;;;;;;21.44;57.53;101254.81;683581;28;21543;-68
2022/07/23 00:08:05;;;;;;;992.72;928.00;;;;;;;21.43;57.42;101258.66;683215;28;46312;-68
2022/07/23 00:08:27;;;;;;;1005.55;940.35;;;;;;;21.42;57.49;101251.47;684113;28;21354;-67
2022/07/23 00:08:48;;;;;;;926.28;864.85;;;;;;;21.41;57.74;101250.66;683336;28;45024;-67
2022/07/23 00:09:09;;;;;;;936.15;874.50;;;;;;;21.38;57.72;101242.88;684443;28;21550;-68
2022/07/23 00:09:31;;;;;;;1006.08;940.72;;;;;;;21.37;57.71;101246.69;683510;28;44021;-67
2022/07/23 00:09:52;;;;;;;1041.55;974.38;;;;;;;21.37;57.63;101249.44;684315;28;22399;-68
2022/07/23 00:10:14;;;;;;;1031.22;964.45;;;;;;;21.36;57.57;101247.78;684244;28;22377;-68
2022/07/23 00:10:36;;;;;;;1017.30;951.03;;;;;;;21.35;57.73;101248.03;683709;28;46412;-69
2022/07/23 00:10:57;;;;;;;1036.82;969.78;;;;;;;21.34;57.66;101249.09;683764;28;45250;-68
2022/07/23 00:11:18;;;;;;;1038.32;971.22;;;;;;;21.31;57.66;101244.06;684518;28;23407;-68
2022/07/23 00:11:41;;;;;;;1042.10;974.85;;;;;;;21.34;57.92;101243.59;684043;28;43641;-69
2022/07/23 00:12:02;;;;;;;1031.75;964.92;;;;;;;21.33;57.83;101241.91;683543;28;46378;-69
2022/07/23 00:12:23;;;;;;;1017.35;951.25;;;;;;;21.33;57.77;101244.66;684535;28;23614;-68
2022/07/23 00:12:45;;;;;;;1025.38;958.80;;;;;;;21.31;57.79;101244.88;681936;28;1766;-69
2022/07/23 00:13:06;;;;;;;1027.55;960.85;;;;;;;21.32;57.92;101241.09;681656;29;21534;-68
2022/07/23 00:13:28;;;;;;;1028.28;961.60;;;;;;;21.31;57.85;101241.31;681597;29;21580;-70
2022/07/23 00:13:49;;;;;;;1031.53;964.83;;;;;;;21.31;57.71;101241.31;680605;29;46269;-68
2022/07/23 00:14:11;;;;;;;1023.53;957.22;;;;;;;21.30;57.74;101245.13;680680;29;44206;-68
2022/07/23 00:14:33;;;;;;;1024.38;958.03;;;;;;;21.29;57.82;101238.81;682249;28;22372;-67
2022/07/23 00:14:55;;;;;;;1017.97;951.80;;;;;;;21.29;57.97;101240.72;685219;28;69441;-68
2022/07/23 00:15:19;;;;;;;1031.20;964.38;;;;;;;21.28;57.83;101239.03;686456;28;30949;-67
2022/07/23 00:15:40;;;;;;;1024.18;957.72;;;;;;;21.28;57.97;101242.63;684982;28;69444;-67
2022/07/23 00:16:01;;;;;;;1024.35;958.00;;;;;;;21.28;57.79;101244.53;686631;28;21524;-67
2022/07/23 00:16:22;;;;;;;1027.00;960.55;;;;;;;21.26;57.78;101241.19;684937;28;23536;-67
2022/07/23 00:16:44;;;;;;;1027.65;961.22;;;;;;;21.24;57.70;101236.78;684223;28;22224;-67
2022/07/23 00:17:06;;;;;;;1021.60;955.25;;;;;;;21.23;57.73;101240.56;682400;28;67466;-67
2022/07/23 00:17:34;;;;;;;1028.68;962.13;;;;;;;21.20;57.93;101240.22;684092;28;21512;-67
2022/07/23 00:17:55;;;;;;;1029.25;962.65;;;;;;;21.20;58.17;101243.78;679765;28;138012;-67
2022/07/23 00:18:17;;;;;;;1026.55;960.05;;;;;;;21.18;58.10;101240.47;684060;28;23458;-67
2022/07/23 00:18:38;;;;;;;1018.95;952.80;;;;;;;21.18;58.09;101245.13;683179;28;46434;-67
2022/07/23 00:19:01;;;;;;;1023.13;956.78;;;;;;;21.18;58.02;101243.19;684316;28;23528;-68
2022/07/23 00:19:22;;;;;;;1026.40;960.00;;;;;;;21.18;58.10;101234.13;682154;28;69179;-68
2022/07/23 00:19:43;;;;;;;1023.75;957.38;;;;;;;21.17;58.29;101238.78;684315;28;21420;-67
2022/07/23 00:20:08;;;;;;;1020.33;954.17;;;;;;;21.16;58.33;101239.88;684239;28;21406;-67
2022/07/23 00:20:30;;;;;;;1022.83;956.50;;;;;;;21.18;58.36;101242.38;680404;28;138009;-68
2022/07/23 00:20:51;;;;;;;1025.28;958.92;;;;;;;21.17;58.25;101244.25;683589;28;45216;-67
2022/07/23 00:21:12;;;;;;;1024.47;958.17;;;;;;;21.17;58.29;101237.94;684396;28;23563;-67
2022/07/23 00:21:34;;;;;;;1023.63;957.30;;;;;;;21.15;58.41;101237.34;683720;28;23679;-67
2022/07/23 00:21:55;;;;;;;1019.53;953.42;;;;;;;21.13;58.14;101236.72;683381;28;46315;-68
2022/07/23 00:22:19;;;;;;;1017.95;951.92;;;;;;;21.14;58.43;101238.41;684344;28;22391;-67
2022/07/23 00:22:46;;;;;;;1024.00;957.75;;;;;;;21.15;58.32;101242.84;682555;28;92261;-66
2022/07/23 00:23:08;;;;;;;964.90;901.55;;;;;;;21.13;58.50;101239.47;678463;28;129359;-68
2022/07/23 00:23:30;;;;;;;885.75;826.08;;;;;;;21.13;58.39;101243.09;682909;28;45074;-68
2022/07/23 00:23:51;;;;;;;888.58;828.75;;;;;;;21.12;58.33;101235.06;683825;28;46308;-67
2022/07/23 00:24:13;;;;;;;906.03;845.60;;;;;;;21.10;58.31;101235.31;684043;28;45234;-67
2022/07/23 00:24:34;;;;;;;904.45;844.05;;;;;;;21.07;58.38;101233.03;684748;28;21527;-67
2022/07/23 00:24:56;;;;;;;917.00;856.13;;;;;;;21.07;58.48;101238.53;684733;28;23107;-67
2022/07/23 00:25:20;;;;;;;926.38;865.05;;;;;;;21.07;58.40;101238.53;683938;28;46421;-67
2022/07/23 00:25:42;;;;;;;908.67;848.08;;;;;;;21.06;58.37;101237.69;681518;28;115136;-67
2022/07/23 00:26:03;;;;;;;916.65;855.80;;;;;;;21.06;58.38;101228.59;684677;28;22444;-67
2022/07/23 00:26:25;;;;;;;923.90;862.78;;;;;;;21.06;58.45;101234.94;684033;28;21544;-67
2022/07/23 00:26:48;;;;;;;916.30;855.38;;;;;;;21.03;58.49;101235.41;683783;28;47445;-66
2022/07/23 00:27:09;;;;;;;912.58;851.83;;;;;;;21.06;58.19;101231.34;682968;28;69332;-68
2022/07/23 00:27:31;;;;;;;909.55;848.92;;;;;;;21.05;58.50;101232.44;683564;28;45069;-67
2022/07/23 00:27:53;;;;;;;906.40;845.83;;;;;;;21.05;58.49;101233.28;684358;28;23429;-67
2022/07/23 00:28:14;;;;;;;908.20;847.50;;;;;;;21.06;58.22;101236.84;681478;29;35368;-67
2022/07/23 00:28:35;;;;;;;919.00;857.97;;;;;;;21.06;58.39;101234.94;681969;29;21700;-68
2022/07/23 00:28:56;;;;;;;943.55;881.30;;;;;;;21.05;58.31;101226.94;681035;29;46364;-67
2022/07/23 00:29:19;;;;;;;950.10;887.75;;;;;;;21.02;58.41;101231.00;681456;28;22266;-67
2022/07/23 00:29:40;;;;;;;921.78;860.72;;;;;;;21.05;58.34;101232.44;680638;29;47367;-67
2022/07/23 00:30:01;;;;;;;905.10;844.50;;;;;;;21.04;58.42;101230.75;682399;28;22380;-68
2022/07/23 00:30:22;;;;;;;917.85;856.95;;;;;;;21.04;58.32;101237.06;682311;28;22229;-69
2022/07/23 00:30:45;;;;;;;916.38;855.40;;;;;;;21.02;58.36;101233.75;680942;29;46617;-68
2022/07/23 00:31:06;;;;;;;919.13;858.05;;;;;;;21.00;58.38;101232.28;680385;29;46331;-67
2022/07/23 00:31:27;;;;;;;928.22;866.80;;;;;;;21.01;58.35;101236.72;681831;28;4324;-67
2022/07/23 00:31:49;;;;;;;931.97;870.50;;;;;;;20.98;58.44;101227.03;682829;28;22405;-67
2022/07/23 00:32:11;;;;;;;924.80;863.55;;;;;;;20.98;58.58;101223.47;681821;28;45204;-68
2022/07/23 00:32:33;;;;;;;917.13;856.10;;;;;;;20.95;58.61;101229.41;681860;28;44361;-68
2022/07/23 00:32:56;;;;;;;922.80;861.55;;;;;;;20.95;58.64;101233.00;683758;28;22375;-68
2022/07/23 00:33:18;;;;;;;920.03;858.83;;;;;;;20.92;58.79;101227.97;681099;28;92259;-69
2022/07/23 00:33:39;;;;;;;921.13;859.95;;;;;;;20.92;58.83;101230.72;684559;28;22410;-68
2022/07/23 00:34:01;;;;;;;920.72;859.55;;;;;;;20.92;58.83;101235.38;684716;28;22380;-68
2022/07/23 00:34:23;;;;;;;937.58;875.85;;;;;;;20.89;58.66;101236.66;682006;28;68311;-68
2022/07/23 00:34:44;;;;;;;930.90;869.45;;;;;;;20.87;58.92;101225.09;684695;28;21515;-67
2022/07/23 00:35:07;;;;;;;925.33;863.92;;;;;;;20.88;59.10;101229.53;685213;28;21550;-67
2022/07/23 00:35:30;;;;;;;921.42;860.17;;;;;;;20.86;59.08;101235.25;682945;28;92218;-68
2022/07/23 00:35:52;;;;;;;906.97;846.30;;;;;;;20.85;58.87;101232.75;685039;28;69294;-68
2022/07/23 00:36:14;;;;;;;904.92;844.28;;;;;;;20.86;59.22;101231.66;685116;28;45235;-68
2022/07/23 00:36:38;;;;;;;927.25;865.83;;;;;;;20.85;59.23;101233.56;685191;28;22387;-69
2022/07/23 00:36:59;;;;;;;924.90;863.55;;;;;;;20.83;59.07;101226.63;682104;28;92121;-68
2022/07/23 00:37:20;;;;;;;927.47;866.03;;;;;;;20.85;59.12;101236.31;682041;29;22375;-69
2022/07/23 00:37:42;;;;;;;928.42;866.80;;;;;;;20.85;59.39;101230.81;681004;29;45268;-69
2022/07/23 00:38:04;;;;;;;920.47;859.05;;;;;;;20.85;59.22;101230.00;681319;29;46317;-68
2022/07/23 00:38:25;;;;;;;930.13;868.55;;;;;;;20.82;59.15;101231.28;682567;28;46273;-68
2022/07/23 00:38:50;;;;;;;920.53;859.30;;;;;;;20.84;59.18;101233.78;682188;29;22404;-69
2022/07/23 00:39:12;;;;;;;924.25;862.92;;;;;;;20.85;59.30;101224.50;680988;28;92201;-69
2022/07/23 00:39:33;;;;;;;937.83;875.45;;;;;;;20.82;59.26;101227.72;683414;28;45333;-68
2022/07/23 00:39:54;;;;;;;927.50;865.25;;;;;;;20.81;59.00;101223.28;681478;28;44210;-70
2022/07/23 00:40:16;;;;;;;935.20;872.60;;;;;;;20.81;58.97;101223.28;682569;29;23454;-68
2022/07/23 00:40:39;;;;;;;950.60;887.40;;;;;;;20.80;59.74;101222.47;679611;29;46416;-68
2022/07/23 00:41:00;;;;;;;986.63;921.97;;;;;;;20.79;59.04;101228.19;679640;29;69441;-69
2022/07/23 00:41:22;;;;;;;1037.75;970.78;;;;;;;20.79;59.27;101228.19;678238;29;22386;-67
2022/07/23 00:41:43;;;;;;;1035.47;968.60;;;;;;;20.75;59.26;101214.06;680387;29;21219;-67
2022/07/23 00:42:05;;;;;;;1037.93;970.95;;;;;;;20.74;59.15;101217.06;680687;29;46404;-67
2022/07/23 00:42:26;;;;;;;1048.72;981.35;;;;;;;20.79;59.20;101222.69;682042;28;44026;-67
2022/07/23 00:42:47;;;;;;;1036.43;969.53;;;;;;;20.79;59.33;101220.78;683738;28;22269;-68
2022/07/23 00:43:09;;;;;;;1051.53;983.92;;;;;;;20.79;59.30;101212.53;684810;28;21491;-68
2022/07/23 00:43:31;;;;;;;1051.72;984.22;;;;;;;20.79;59.18;101214.44;683879;28;44158;-68
2022/07/23 00:43:52;;;;;;;1051.95;984.35;;;;;;;20.80;59.19;101224.34;684495;28;46374;-68
2022/07/23 00:44:15;;;;;;;1051.93;984.28;;;;;;;20.79;59.22;101220.78;687313;28;21536;-68
2022/07/23 00:44:37;;;;;;;1052.15;984.55;;;;;;;20.78;59.11;101216.34;682297;28;68164;-68
2022/07/23 00:44:58;;;;;;;1051.88;984.28;;;;;;;20.81;59.19;101220.53;681927;29;22396;-68
2022/07/23 00:45:25;;;;;;;1052.68;985.05;;;;;;;20.81;59.03;101212.31;680720;29;60626;-68
2022/07/23 00:45:46;;;;;;;1050.95;983.35;;;;;;;20.80;59.06;101211.47;680142;29;68748;-68
2022/07/23 00:46:08;;;;;;;1046.63;979.22;;;;;;;20.80;59.04;101211.47;681780;29;23358;-68
2022/07/23 00:46:29;;;;;;;1048.65;981.15;;;;;;;20.83;58.97;101213.75;682002;28;21495;-68
2022/07/23 00:46:53;;;;;;;1049.70;982.28;;;;;;;20.83;58.99;101221.13;684222;28;22474;-69
2022/07/23 00:47:14;;;;;;;1047.97;980.50;;;;;;;20.83;58.88;101221.13;681448;28;115134;-68
2022/07/23 00:47:36;;;;;;;1051.72;984.13;;;;;;;20.83;58.91;101218.38;686400;28;921;-68
2022/07/23 00:47:58;;;;;;;1047.38;979.90;;;;;;;20.83;59.04;101215.63;683846;28;44211;-68
2022/07/23 00:48:20;;;;;;;1047.78;980.33;;;;;;;20.85;59.23;101225.31;684695;28;22400;-68
2022/07/23 00:48:41;;;;;;;1054.32;986.58;;;;;;;20.85;59.09;101219.84;682709;28;70370;-68
2022/07/23 00:49:02;;;;;;;1051.90;984.28;;;;;;;20.86;59.21;101224.25;683624;28;44136;-68
2022/07/23 00:49:25;;;;;;;1047.38;979.88;;;;;;;20.86;59.02;101229.75;684241;28;22392;-68
2022/07/23 00:49:48;;;;;;;1048.82;981.22;;;;;;;20.88;58.94;101224.03;682809;28;69206;-68
2022/07/23 00:50:11;;;;;;;1052.00;984.40;;;;;;;20.89;59.01;101222.94;683572;28;44390;-68
2022/07/23 00:50:33;;;;;;;1050.15;982.65;;;;;;;20.88;59.11;101219.38;680475;29;69512;-68
2022/07/23 00:50:55;;;;;;;1054.28;986.55;;;;;;;20.92;58.87;101225.22;678552;29;45262;-68
2022/07/23 00:51:17;;;;;;;1050.25;982.67;;;;;;;20.94;58.89;101227.72;678077;29;44155;-68
2022/07/23 00:51:41;;;;;;;1050.03;982.42;;;;;;;20.92;58.94;101224.38;678190;29;58585;-68
2022/07/23 00:52:03;;;;;;;1048.82;981.33;;;;;;;20.96;58.76;101231.94;681467;29;22626;-68
2022/07/23 00:52:26;;;;;;;1048.63;981.03;;;;;;;20.96;58.77;101234.66;681663;28;45229;-68
2022/07/23 00:52:48;;;;;;;1046.90;979.33;;;;;;;20.95;58.87;101233.00;683251;28;67598;-68
2022/07/23 00:53:09;;;;;;;1047.22;979.70;;;;;;;20.96;58.74;101236.59;687152;28;45201;-68
2022/07/23 00:53:31;;;;;;;1050.22;982.63;;;;;;;20.94;58.87;101231.34;685990;28;23806;-68
2022/07/23 00:53:53;;;;;;;1047.30;979.90;;;;;;;20.94;58.71;101231.34;684562;28;12503;-68
2022/07/23 00:54:15;;;;;;;1047.03;979.55;;;;;;;20.94;58.63;101230.47;682558;28;69397;-68
2022/07/23 00:54:36;;;;;;;1056.82;988.92;;;;;;;20.91;58.74;101231.81;684058;28;23465;-68
2022/07/23 00:54:57;;;;;;;1057.53;989.63;;;;;;;20.94;58.71;101234.09;683488;28;22202;-68
2022/07/23 00:55:20;;;;;;;1050.78;983.17;;;;;;;20.95;58.66;101234.91;684270;28;22381;-69
2022/07/23 00:55:41;;;;;;;1052.07;984.45;;;;;;;20.95;58.41;101234.91;682884;28;69226;-68
2022/07/23 00:56:02;;;;;;;1053.07;985.35;;;;;;;20.96;58.52;101239.34;681848;28;23332;-69
2022/07/23 00:56:24;;;;;;;1051.22;983.60;;;;;;;20.88;58.63;101226.78;682811;28;23447;-69
2022/07/23 00:56:46;;;;;;;1053.22;985.45;;;;;;;20.94;58.67;101235.97;684312;28;44437;-67
2022/07/23 00:57:08;;;;;;;1056.55;988.53;;;;;;;20.94;58.59;101233.22;682841;28;46405;-69
2022/07/23 00:57:29;;;;;;;1051.18;983.53;;;;;;;20.93;58.61;101235.13;682983;28;46360;-67
2022/07/23 00:57:52;;;;;;;1053.57;985.85;;;;;;;20.93;58.29;101231.56;683738;28;22334;-67
2022/07/23 00:58:14;;;;;;;1048.45;980.85;;;;;;;20.94;58.54;101227.72;679881;29;66833;-67
2022/07/23 00:58:37;;;;;;;1053.28;985.53;;;;;;;20.94;58.54;101227.72;680626;29;44011;-68
2022/07/23 00:59:00;;;;;;;1047.10;979.58;;;;;;;20.94;58.62;101224.97;680870;28;69455;-67
2022/07/23 00:59:21;;;;;;;1047.10;979.67;;;;;;;20.94;58.27;101220.34;682447;28;67380;-67
2022/07/23 00:59:44;;;;;;;1053.85;986.15;;;;;;;20.95;58.26;101221.19;685400;28;21504;-66
2022/07/23 01:00:08;;;;;;;1046.45;979.13;;;;;;;20.97;58.13;101224.50;683612;28;46362;-67
2022/07/23 01:00:29;;;;;;;1044.13;976.83;;;;;;;20.92;58.34;101208.75;681570;28;113606;-67
2022/07/23 01:00:51;;;;;;;1044.75;977.35;;;;;;;20.97;58.17;101222.63;683514;28;44357;-68
2022/07/23 01:01:12;;;;;;;1046.80;979.38;;;;;;;20.95;58.30;101222.00;684816;28;21553;-68
2022/07/23 01:01:34;;;;;;;1049.57;982.08;;;;;;;21.00;58.19;101221.31;683068;28;45261;-68
2022/07/23 01:01:55;;;;;;;1048.57;981.03;;;;;;;20.97;58.21;101214.41;683888;28;44541;-68
2022/07/23 01:02:17;;;;;;;1055.40;987.53;;;;;;;20.99;58.26;101227.88;681630;29;22345;-68
2022/07/23 01:02:38;;;;;;;1043.22;975.90;;;;;;;21.01;58.29;101225.72;682482;28;21520;-67
2022/07/23 01:03:00;;;;;;;1042.75;975.35;;;;;;;21.02;58.11;101230.16;680358;29;46145;-67
2022/07/23 01:03:23;;;;;;;1048.07;980.58;;;;;;;21.02;58.10;101225.50;680617;28;44496;-67
2022/07/23 01:03:44;;;;;;;1046.00;978.60;;;;;;;21.04;57.94;101228.00;678339;29;46437;-67
2022/07/23 01:04:05;;;;;;;1044.93;977.53;;;;;;;21.03;57.96;101224.44;681073;28;46335;-67
2022/07/23 01:04:26;;;;;;;1044.43;977.17;;;;;;;21.03;58.03;101229.06;682617;28;46555;-67
2022/07/23 01:04:52;;;;;;;1041.65;974.58;;;;;;;21.00;57.85;101226.78;683753;28;22362;-68
2022/07/23 01:05:14;;;;;;;1037.82;970.90;;;;;;;21.04;58.09;101226.09;679363;28;113564;-67
2022/07/23 01:05:36;;;;;;;1039.30;972.35;;;;;;;21.03;57.81;101229.94;681897;28;67503;-67
2022/07/23 01:05:57;;;;;;;1037.28;970.38;;;;;;;21.02;57.57;101228.25;680090;29;45235;-68
2022/07/23 01:06:19;;;;;;;1031.57;964.78;;;;;;;21.00;57.77;101226.78;678400;29;22346;-68
2022/07/23 01:06:41;;;;;;;1031.50;964.75;;;;;;;21.01;57.72;101226.56;677602;29;23443;-68
2022/07/23 01:07:02;;;;;;;1040.03;972.92;;;;;;;21.02;57.80;101232.91;677619;29;44317;-68
2022/07/23 01:07:23;;;;;;;1039.00;971.90;;;;;;;20.99;57.76;101230.63;681174;29;21555;-68
2022/07/23 01:07:46;;;;;;;1034.43;967.63;;;;;;;21.01;57.59;101225.72;680703;28;46417;-66
2022/07/23 01:08:08;;;;;;;1037.13;970.17;;;;;;;21.01;57.65;101228.47;683226;28;69422;-67
2022/07/23 01:08:29;;;;;;;1040.13;973.13;;;;;;;21.01;57.66;101231.22;684079;28;22397;-67
2022/07/23 01:08:51;;;;;;;1041.63;974.53;;;;;;;21.00;57.63;101233.16;682466;28;46549;-67
2022/07/23 01:09:13;;;;;;;1038.30;971.40;;;;;;;21.01;57.73;101228.47;684004;28;22412;-67
2022/07/23 01:09:34;;;;;;;1039.25;972.33;;;;;;;21.01;57.39;101233.97;683143;28;46618;-67
2022/07/23 01:09:56;;;;;;;1032.82;966.13;;;;;;;21.01;57.73;101231.22;683675;28;22403;-67
2022/07/23 01:10:33;;;;;;;1036.93;970.03;;;;;;;21.01;57.68;101231.22;680891;29;45352;-67
2022/07/23 01:10:57;;;;;;;1036.82;969.83;;;;;;;21.01;57.45;101228.47;677513;29;137910;-67
2022/07/23 01:11:20;;;;;;;1037.85;970.85;;;;;;;21.01;57.50;101228.47;676246;29;92083;-67
2022/07/23 01:11:42;;;;;;;1034.00;967.20;;;;;;;21.00;57.64;101227.66;675947;29;89094;-67
2022/07/23 01:12:05;;;;;;;1035.22;968.35;;;;;;;21.01;57.56;101229.31;679658;28;70276;-67
2022/07/23 01:12:26;;;;;;;1025.07;958.67;;;;;;;21.00;57.76;101227.66;683201;28;43693;-67
2022/07/23 01:12:47;;;;;;;1032.20;965.45;;;;;;;21.01;57.65;101229.31;683320;28;23480;-67
2022/07/23 01:13:11;;;;;;;1033.30;966.50;;;;;;;20.99;57.56;101227.88;685689;28;21533;-67
2022/07/23 01:13:32;;;;;;;1034.00;967.20;;;;;;;21.00;57.59;101226.78;683029;28;92247;-68
2022/07/23 01:13:53;;;;;;;1026.43;960.00;;;;;;;21.00;57.43;101235.03;684056;28;22196;-69
2022/07/23 01:14:16;;;;;;;1028.65;962.15;;;;;;;20.99;57.78;101227.88;681730;28;45065;-68
2022/07/23 01:14:38;;;;;;;1025.75;959.28;;;;;;;21.00;57.48;101232.28;679997;29;45063;-68
2022/07/23 01:15:00;;;;;;;1035.50;968.65;;;;;;;21.01;57.68;101228.47;680850;29;31044;-67
2022/07/23 01:15:23;;;;;;;1033.38;966.70;;;;;;;21.00;57.59;101226.78;679656;28;93075;-67
2022/07/23 01:15:45;;;;;;;1029.73;963.13;;;;;;;20.93;57.81;101217.84;682652;28;46391;-66
2022/07/23 01:16:08;;;;;;;1029.00;962.45;;;;;;;21.00;57.81;101229.53;683393;28;44388;-68
2022/07/23 01:16:29;;;;;;;1033.72;966.92;;;;;;;21.00;57.54;101237.78;681766;28;68469;-68
2022/07/23 01:16:51;;;;;;;1034.60;967.75;;;;;;;20.93;57.63;101223.34;683170;28;23492;-67
2022/07/23 01:17:12;;;;;;;1033.32;966.40;;;;;;;21.01;57.57;101232.06;682716;28;44351;-68
2022/07/23 01:17:33;;;;;;;1031.10;964.30;;;;;;;21.04;57.56;101233.50;683515;28;22391;-67
2022/07/23 01:17:56;;;;;;;1035.40;968.60;;;;;;;21.05;57.52;101235.19;680173;29;21510;-67
2022/07/23 01:18:20;;;;;;;1031.93;965.22;;;;;;;21.03;57.62;101229.06;677309;29;69885;-67
2022/07/23 01:18:41;;;;;;;1031.72;965.03;;;;;;;21.06;57.42;101225.84;676366;29;92337;-69
2022/07/23 01:19:06;;;;;;;1033.90;967.20;;;;;;;21.06;57.58;101225.84;681996;29;23516;-67
2022/07/23 01:19:29;;;;;;;1030.82;964.13;;;;;;;21.11;57.55;101234.22;679022;29;43168;-67
2022/07/23 01:19:50;;;;;;;1030.60;963.90;;;;;;;21.11;57.53;101227.91;678209;29;69177;-67
2022/07/23 01:20:11;;;;;;;1029.15;962.53;;;;;;;21.12;57.52;101233.16;680430;29;22383;-68
2022/07/23 01:20:34;;;;;;;1029.82;963.30;;;;;;;21.12;57.48;101233.16;679641;28;23533;-67
2022/07/23 01:20:56;;;;;;;1014.90;948.95;;;;;;;21.10;57.36;101223.47;678462;29;67427;-68
2022/07/23 01:21:18;;;;;;;1019.75;953.60;;;;;;;21.13;57.21;101226.59;680223;28;45305;-68
2022/07/23 01:21:41;;;;;;;1038.05;971.03;;;;;;;21.13;57.24;101229.34;681123;28;45281;-68
2022/07/23 01:22:03;;;;;;;1037.03;970.05;;;;;;;21.12;56.98;101222.16;680521;28;69110;-68
2022/07/23 01:22:29;;;;;;;1037.20;970.30;;;;;;;21.14;57.15;101228.25;682934;28;45127;-68
2022/07/23 01:22:51;;;;;;;1040.32;973.22;;;;;;;21.14;57.11;101224.69;676961;29;136417;-68
2022/07/23 01:23:13;;;;;;;1038.97;971.90;;;;;;;21.14;56.94;101235.66;677744;29;45351;-68
2022/07/23 01:23:40;;;;;;;1033.68;966.83;;;;;;;21.14;57.00;101233.75;673090;29;137555;-68
2022/07/23 01:24:01;;;;;;;1034.90;968.10;;;;;;;21.14;57.00;101228.25;674624;29;44546;-68
2022/07/23 01:24:24;;;;;;;1034.22;967.42;;;;;;;21.13;56.83;101228.50;675919;29;23487;-68
2022/07/23 01:24:59;;;;;;;1031.80;965.10;;;;;;;21.12;56.87;101235.06;673276;29;160471;-68
2022/07/23 01:25:23;;;;;;;1041.85;974.72;;;;;;;21.11;57.03;101228.72;677613;29;92812;-68
2022/07/23 01:25:55;;;;;;;1034.30;967.53;;;;;;;21.11;57.12;101231.47;675485;29;137969;-68
2022/07/23 01:26:18;;;;;;;1031.03;964.40;;;;;;;21.05;56.93;101227.78;679346;29;90246;-68
2022/07/23 01:26:43;;;;;;;1035.47;968.58;;;;;;;21.10;57.05;101231.72;676595;29;46185;-68
2022/07/23 01:27:05;;;;;;;1034.70;967.80;;;;;;;21.08;57.17;101223.69;674817;29;114927;-68
2022/07/23 01:27:28;;;;;;;1035.80;968.88;;;;;;;21.09;57.05;101233.63;677856;29;45220;-68
2022/07/23 01:27:54;;;;;;;1031.57;964.85;;;;;;;21.07;57.03;101227.53;673700;29;161100;-68
2022/07/23 01:28:16;;;;;;;1030.03;963.38;;;;;;;21.07;57.10;101222.06;676802;29;44117;-68
2022/07/23 01:28:37;;;;;;;1031.82;965.13;;;;;;;21.07;57.03;101219.31;677446;29;22470;-68
2022/07/23 01:29:00;;;;;;;1029.28;962.67;;;;;;;21.08;57.41;101222.88;677817;29;40736;-68
2022/07/23 01:29:21;;;;;;;1030.72;964.10;;;;;;;21.09;57.15;101219.06;674692;29;46368;-68
2022/07/23 01:29:43;;;;;;;1031.40;964.70;;;;;;;21.09;57.14;101211.66;673508;29;46328;-68
2022/07/23 01:30:11;;;;;;;1033.25;966.45;;;;;;;21.04;56.95;101214.28;671029;29;136599;-68
2022/07/23 01:30:33;;;;;;;1032.65;965.97;;;;;;;21.10;56.85;101212.47;675527;29;44377;-68
2022/07/23 01:30:56;;;;;;;1024.78;958.45;;;;;;;21.12;57.01;101215.84;677052;29;93054;-68
2022/07/23 01:31:19;;;;;;;1027.93;961.53;;;;;;;21.11;56.92;101215.00;675925;29;23020;-68
2022/07/23 01:31:40;;;;;;;1030.70;964.10;;;;;;;21.10;56.68;101210.59;675276;29;69460;-68
2022/07/23 01:32:02;;;;;;;1031.10;964.42;;;;;;;21.11;56.70;101205.94;679097;29;45285;-68
2022/07/23 01:32:24;;;;;;;1034.10;967.40;;;;;;;21.11;56.82;101208.66;681857;29;22154;-68
2022/07/23 01:32:46;;;;;;;1033.75;966.95;;;;;;;21.12;56.78;101207.63;676628;29;69405;-68
2022/07/23 01:33:08;;;;;;;1037.63;970.83;;;;;;;21.06;56.66;101196.50;678142;29;44366;-68
2022/07/23 01:33:30;;;;;;;1034.93;968.13;;;;;;;21.12;56.70;101202.13;677023;29;44446;-69
2022/07/23 01:33:51;;;;;;;1027.22;960.80;;;;;;;21.09;56.93;101211.66;678980;29;44375;-68
2022/07/23 01:34:14;;;;;;;1030.47;963.88;;;;;;;21.11;56.52;101214.16;680209;29;23413;-68
2022/07/23 01:34:35;;;;;;;1031.90;965.25;;;;;;;21.10;56.66;101207.84;676677;29;67452;-68
2022/07/23 01:34:57;;;;;;;1030.03;963.47;;;;;;;21.09;56.69;101205.34;679215;29;22220;-68
2022/07/23 01:35:18;;;;;;;1027.03;960.58;;;;;;;21.09;56.89;101208.91;677865;29;44093;-68
2022/07/23 01:35:39;;;;;;;1025.32;958.83;;;;;;;21.08;56.78;101207.22;676607;29;22371;-68
2022/07/23 01:36:03;;;;;;;1034.75;967.85;;;;;;;21.06;56.95;101203.88;674469;29;69684;-69
2022/07/23 01:36:25;;;;;;;1032.15;965.47;;;;;;;21.09;56.79;101206.16;678012;29;6033;-69
2022/07/23 01:36:47;;;;;;;1027.80;961.28;;;;;;;21.09;56.93;101206.16;679132;28;45278;-69
2022/07/23 01:37:11;;;;;;;1038.80;971.80;;;;;;;21.06;57.01;101196.50;678689;28;90318;-69
2022/07/23 01:37:34;;;;;;;1029.82;963.17;;;;;;;21.06;57.18;101203.88;680852;28;44365;-68
2022/07/23 01:37:55;;;;;;;1032.20;965.50;;;;;;;21.00;57.25;101200.19;679045;29;69228;-68
2022/07/23 01:38:17;;;;;;;1032.43;965.72;;;;;;;20.96;57.33;101195.41;680362;29;45183;-68
2022/07/23 01:38:43;;;;;;;1030.53;963.90;;;;;;;20.98;57.43;101205.06;677263;29;115104;-68